createdAt,value
2023-02-11T00:01:54.036Z,4.01
2023-02-11T00:04:39.539Z,4.00
2023-02-11T00:07:24.898Z,4.03
2023-02-11T00:10:10.497Z,4.05
2023-02-11T00:12:56.280Z,4.05
2023-02-11T00:15:41.798Z,4.02
2023-02-11T00:18:28.054Z,4.00
2023-02-11T00:21:15.697Z,4.01
2023-02-11T00:24:02.189Z,4.06
2023-02-11T00:26:47.833Z,4.11
2023-02-11T00:29:32.987Z,4.15
2023-02-11T00:32:18.567Z,4.22
2023-02-11T00:35:03.735Z,4.25
2023-02-11T00:37:53.727Z,4.30
2023-02-11T00:40:38.860Z,4.33
2023-02-11T00:43:23.919Z,4.36
2023-02-11T00:46:09.921Z,4.41
2023-02-11T00:48:57.693Z,4.45
2023-02-11T00:51:43.112Z,4.44
2023-02-11T00:54:30.006Z,4.47
2023-02-11T00:57:15.436Z,4.51
2023-02-11T01:00:00.963Z,4.55
2023-02-11T01:02:46.279Z,4.59
2023-02-11T01:05:31.938Z,4.62
2023-02-11T01:08:17.272Z,4.63
2023-02-11T01:11:06.513Z,4.67
2023-02-11T01:13:51.848Z,4.66
2023-02-11T01:16:37.363Z,4.66
2023-02-11T01:19:23.582Z,4.66
2023-02-11T01:22:09.213Z,4.67
2023-02-11T01:24:54.475Z,4.65
2023-02-11T01:27:40.225Z,4.66
2023-02-11T01:30:25.463Z,4.67
2023-02-11T01:33:10.711Z,4.66
2023-02-11T01:35:56.034Z,4.67
2023-02-11T01:38:41.454Z,4.68
2023-02-11T01:41:26.887Z,4.68
2023-02-11T01:44:26.249Z,4.68
2023-02-11T01:47:11.582Z,4.66
2023-02-11T01:50:01.540Z,4.66
2023-02-11T01:52:48.685Z,4.69
2023-02-11T01:55:52.750Z,4.71
2023-02-11T01:58:41.455Z,4.69
2023-02-11T02:01:28.957Z,4.72
2023-02-11T02:04:18.738Z,4.76
2023-02-11T02:07:10.654Z,4.78
2023-02-11T02:10:03.264Z,4.80
2023-02-11T02:12:48.545Z,4.81
2023-02-11T02:15:39.697Z,4.84
2023-02-11T02:18:48.745Z,4.85
2023-02-11T02:22:25.042Z,4.89
2023-02-11T02:25:31.719Z,4.92
2023-02-11T02:28:39.121Z,4.92
2023-02-11T02:31:53.110Z,4.95
2023-02-11T02:34:49.915Z,5.00
2023-02-11T02:38:17.071Z,5.02
2023-02-11T02:41:13.627Z,5.05
2023-02-11T02:43:59.271Z,5.08
2023-02-11T02:46:44.695Z,5.11
2023-02-11T02:49:29.986Z,5.09
2023-02-11T02:52:51.564Z,5.12
2023-02-11T02:55:57.491Z,5.15
2023-02-11T02:59:02.305Z,5.17
2023-02-11T03:02:13.538Z,5.19
2023-02-11T03:05:01.996Z,5.19
2023-02-11T03:07:47.354Z,5.24
2023-02-11T03:10:36.474Z,5.27
2023-02-11T03:13:29.360Z,5.25
2023-02-11T03:16:22.758Z,5.25
2023-02-11T03:19:22.414Z,5.27
2023-02-11T03:22:16.964Z,5.28
2023-02-11T03:25:02.960Z,5.29
2023-02-11T03:27:57.571Z,5.32
2023-02-11T03:30:53.406Z,5.32
2023-02-11T03:33:53.822Z,5.32
2023-02-11T03:36:46.054Z,5.35
2023-02-11T03:39:37.766Z,5.35
2023-02-11T03:42:28.813Z,5.34
2023-02-11T03:45:17.229Z,5.33
2023-02-11T03:48:12.613Z,5.35
2023-02-11T03:51:01.487Z,5.38
2023-02-11T03:53:48.219Z,5.40
2023-02-11T03:56:48.953Z,5.40
2023-02-11T03:59:53.969Z,5.41
2023-02-11T04:02:40.694Z,5.43
2023-02-11T04:05:26.315Z,5.44
2023-02-11T04:08:11.664Z,5.46
2023-02-11T04:10:57.101Z,5.45
2023-02-11T04:13:42.441Z,5.46
2023-02-11T04:16:28.135Z,5.48
2023-02-11T04:19:13.296Z,5.47
2023-02-11T04:21:59.269Z,5.46
2023-02-11T04:24:44.656Z,5.47
2023-02-11T04:27:30.158Z,5.46
2023-02-11T04:30:15.286Z,5.48
2023-02-11T04:33:00.261Z,5.51
2023-02-11T04:35:45.748Z,5.54
2023-02-11T04:38:31.175Z,5.55
2023-02-11T04:41:16.665Z,5.55
2023-02-11T04:44:02.036Z,5.52
2023-02-11T04:46:47.486Z,5.51
2023-02-11T04:49:33.042Z,5.48
2023-02-11T04:52:18.248Z,5.48
2023-02-11T04:55:04.158Z,5.49
2023-02-11T04:57:49.601Z,5.49
2023-02-11T05:00:35.065Z,5.49
2023-02-11T05:03:20.556Z,5.49
2023-02-11T05:06:06.639Z,5.48
2023-02-11T05:08:51.948Z,5.48
2023-02-11T05:11:39.288Z,5.50
2023-02-11T05:14:24.451Z,5.49
2023-02-11T05:17:09.929Z,5.49
2023-02-11T05:19:55.496Z,5.45
2023-02-11T05:22:40.709Z,5.45
2023-02-11T05:25:26.060Z,5.46
2023-02-11T05:28:11.275Z,5.49
2023-02-11T05:30:56.744Z,5.50
2023-02-11T05:33:42.267Z,5.51
2023-02-11T05:36:27.604Z,5.51
2023-02-11T05:39:12.881Z,5.52
2023-02-11T05:41:58.458Z,5.54
2023-02-11T05:44:43.785Z,5.56
2023-02-11T05:47:29.331Z,5.55
2023-02-11T05:50:14.768Z,5.56
2023-02-11T05:53:00.013Z,5.58
2023-02-11T05:55:45.978Z,5.56
2023-02-11T05:58:32.213Z,5.57
2023-02-11T06:01:17.669Z,5.56
2023-02-11T06:04:02.892Z,5.58
2023-02-11T06:06:48.320Z,5.59
2023-02-11T06:09:33.498Z,5.59
2023-02-11T06:12:18.845Z,5.60
2023-02-11T06:15:05.583Z,5.61
2023-02-11T06:17:50.895Z,5.60
2023-02-11T06:20:37.144Z,5.64
2023-02-11T06:23:22.666Z,5.64
2023-02-11T06:26:10.540Z,5.67
2023-02-11T06:28:55.903Z,5.70
2023-02-11T06:31:41.537Z,5.67
2023-02-11T06:34:26.637Z,5.67
2023-02-11T06:37:11.946Z,5.67
2023-02-11T06:39:57.162Z,5.68
2023-02-11T06:42:42.532Z,5.70
2023-02-11T06:45:27.594Z,5.71
2023-02-11T06:48:12.951Z,5.67
2023-02-11T06:51:02.864Z,5.67
2023-02-11T06:53:48.942Z,5.69
2023-02-11T06:56:34.759Z,5.71
2023-02-11T06:59:20.752Z,5.73
2023-02-11T07:02:06.118Z,5.73
2023-02-11T07:04:51.570Z,5.74
2023-02-11T07:07:37.594Z,5.75
2023-02-11T07:10:22.878Z,5.75
2023-02-11T07:13:08.282Z,5.80
2023-02-11T07:15:53.650Z,5.82
2023-02-11T07:18:38.769Z,5.83
2023-02-11T07:21:24.395Z,5.85
2023-02-11T07:24:11.169Z,5.90
2023-02-11T07:26:56.614Z,5.94
2023-02-11T07:29:43.452Z,5.94
2023-02-11T07:32:28.559Z,6.01
2023-02-11T07:35:14.731Z,6.03
2023-02-11T07:37:59.757Z,6.06
2023-02-11T07:40:45.238Z,6.12
2023-02-11T07:43:31.700Z,6.16
2023-02-11T07:46:20.330Z,6.21
2023-02-11T07:49:05.316Z,6.21
2023-02-11T07:51:51.459Z,6.19
2023-02-11T07:54:36.733Z,6.21
2023-02-11T07:57:22.013Z,6.22
2023-02-11T08:00:07.346Z,6.22
2023-02-11T08:02:59.177Z,6.23
2023-02-11T08:05:44.323Z,6.28
2023-02-11T08:08:29.696Z,6.30
2023-02-11T08:11:20.770Z,6.27
2023-02-11T08:14:06.191Z,6.29
2023-02-11T08:16:51.833Z,6.30
2023-02-11T08:19:37.051Z,6.35
2023-02-11T08:22:22.555Z,6.38
2023-02-11T08:25:08.170Z,6.41
2023-02-11T08:27:53.328Z,6.43
2023-02-11T08:30:38.601Z,6.45
2023-02-11T08:33:23.991Z,6.46
2023-02-11T08:36:21.527Z,6.48
2023-02-11T08:39:19.298Z,6.49
2023-02-11T08:42:05.350Z,6.51
2023-02-11T08:44:50.557Z,6.51
2023-02-11T08:47:37.062Z,6.51
2023-02-11T08:50:22.416Z,6.51
2023-02-11T08:53:08.197Z,6.55
2023-02-11T08:55:55.275Z,6.52
2023-02-11T08:58:40.884Z,6.51
2023-02-11T09:01:29.622Z,6.54
2023-02-11T09:04:15.068Z,6.62
2023-02-11T09:07:00.561Z,6.64
2023-02-11T09:09:45.748Z,6.66
2023-02-11T09:12:31.013Z,6.65
2023-02-11T09:15:16.572Z,6.67
2023-02-11T09:18:02.619Z,6.71
2023-02-11T09:20:47.838Z,6.73
2023-02-11T09:23:34.529Z,6.73
2023-02-11T09:26:24.825Z,6.74
2023-02-11T09:29:10.117Z,6.76
2023-02-11T09:31:55.630Z,6.76
2023-02-11T09:34:40.987Z,6.69
2023-02-11T09:37:26.562Z,6.69
2023-02-11T09:40:14.605Z,6.67
2023-02-11T09:43:05.903Z,6.68
2023-02-11T09:45:54.880Z,6.70
2023-02-11T09:48:42.812Z,6.69
2023-02-11T09:51:45.299Z,6.73
2023-02-11T09:54:35.090Z,6.75
2023-02-11T09:57:28.580Z,6.79
2023-02-11T10:00:48.454Z,6.78
2023-02-11T10:03:39.752Z,6.78
2023-02-11T10:06:37.091Z,6.76
2023-02-11T10:09:40.889Z,6.76
2023-02-11T10:12:58.845Z,6.81
2023-02-11T10:16:13.800Z,6.82
2023-02-11T10:19:09.666Z,6.83
2023-02-11T10:22:40.107Z,6.86
2023-02-11T10:25:26.976Z,6.88
2023-02-11T10:28:18.652Z,6.85
2023-02-11T10:31:11.384Z,6.83
2023-02-11T10:34:07.061Z,6.79
2023-02-11T10:36:52.381Z,6.83
2023-02-11T10:39:39.890Z,6.81
2023-02-11T10:42:25.864Z,6.85
2023-02-11T10:45:19.296Z,6.84
2023-02-11T10:48:09.005Z,6.86
2023-02-11T10:51:08.703Z,6.88
2023-02-11T10:54:08.206Z,6.86
2023-02-11T10:56:59.521Z,6.86
2023-02-11T10:59:45.043Z,6.83
2023-02-11T11:02:34.701Z,6.82
2023-02-11T11:05:24.317Z,6.86
2023-02-11T11:08:09.661Z,6.88
2023-02-11T11:11:05.144Z,6.89
2023-02-11T11:13:53.429Z,6.91
2023-02-11T11:16:38.854Z,6.90
2023-02-11T11:19:25.913Z,6.92
2023-02-11T11:22:22.091Z,6.87
2023-02-11T11:25:22.322Z,6.79
2023-02-11T11:28:25.428Z,6.77
2023-02-11T11:31:28.968Z,6.74
2023-02-11T11:34:32.302Z,6.73
2023-02-11T11:37:43.993Z,6.70
2023-02-11T11:40:34.604Z,6.72
2023-02-11T11:43:23.873Z,6.75
2023-02-11T11:46:12.214Z,6.74
2023-02-11T11:49:23.225Z,6.76
2023-02-11T11:52:18.202Z,6.80
2023-02-11T11:55:33.071Z,6.86
2023-02-11T11:58:21.525Z,6.92
2023-02-11T12:01:10.023Z,6.96
2023-02-11T12:04:14.140Z,7.03
2023-02-11T12:07:26.029Z,7.07
2023-02-11T12:10:14.314Z,7.06
2023-02-11T12:13:23.399Z,7.07
2023-02-11T12:16:33.722Z,7.11
2023-02-11T12:19:46.703Z,7.13
2023-02-11T12:23:09.235Z,7.18
2023-02-11T12:26:17.746Z,7.23
2023-02-11T12:29:36.620Z,7.24
2023-02-11T12:32:43.263Z,7.19
2023-02-11T12:35:37.003Z,7.19
2023-02-11T12:39:02.013Z,7.19
2023-02-11T12:42:09.405Z,7.22
2023-02-11T12:45:13.963Z,7.25
2023-02-11T12:48:05.233Z,7.25
2023-02-11T12:50:56.891Z,7.27
2023-02-11T12:54:11.921Z,7.30
2023-02-11T12:57:11.101Z,7.33
2023-02-11T13:00:02.838Z,7.34
2023-02-11T13:02:54.504Z,7.39
2023-02-11T13:05:54.085Z,7.40
2023-02-11T13:08:49.305Z,7.44
2023-02-11T13:11:43.161Z,7.45
2023-02-11T13:14:35.279Z,7.43
2023-02-11T13:17:29.913Z,7.40
2023-02-11T13:20:30.209Z,7.36
2023-02-11T13:23:31.694Z,7.37
2023-02-11T13:26:24.533Z,7.38
2023-02-11T13:29:30.370Z,7.40
2023-02-11T13:32:16.109Z,7.43
2023-02-11T13:35:02.087Z,7.44
2023-02-11T13:37:48.015Z,7.46
2023-02-11T13:40:39.242Z,7.46
2023-02-11T13:43:30.010Z,7.52
2023-02-11T13:46:15.851Z,7.49
2023-02-11T13:49:01.009Z,7.49
2023-02-11T13:51:47.378Z,7.49
2023-02-11T13:54:38.926Z,7.50
2023-02-11T13:57:32.181Z,7.50
2023-02-11T14:00:32.799Z,7.53
2023-02-11T14:03:46.267Z,7.54
2023-02-11T14:06:50.131Z,7.54
2023-02-11T14:09:38.729Z,7.57
2023-02-11T14:12:31.475Z,7.59
2023-02-11T14:15:20.399Z,7.59
2023-02-11T14:18:37.218Z,7.63
2023-02-11T14:21:26.185Z,7.55
2023-02-11T14:24:11.570Z,7.58
2023-02-11T14:27:28.150Z,7.60
2023-02-11T14:30:26.862Z,7.55
2023-02-11T14:33:40.236Z,7.55
2023-02-11T14:36:43.650Z,7.56
2023-02-11T14:39:40.934Z,7.54
2023-02-11T14:42:29.607Z,7.53
2023-02-11T14:45:21.180Z,7.50
2023-02-11T14:48:16.086Z,7.50
2023-02-11T14:51:19.529Z,7.52
2023-02-11T14:54:18.955Z,7.52
2023-02-11T14:57:16.095Z,7.50
2023-02-11T15:00:19.634Z,7.49
2023-02-11T15:03:05.226Z,7.48
2023-02-11T15:05:55.756Z,7.45
2023-02-11T15:08:52.153Z,7.43
2023-02-11T15:11:43.338Z,7.42
2023-02-11T15:14:32.975Z,7.40
2023-02-11T15:17:21.077Z,7.38
2023-02-11T15:20:13.493Z,7.37
2023-02-11T15:23:01.211Z,7.33
2023-02-11T15:25:52.555Z,7.35
2023-02-11T15:28:38.093Z,7.33
2023-02-11T15:31:25.839Z,7.35
2023-02-11T15:34:14.423Z,7.36
2023-02-11T15:36:59.729Z,7.39
2023-02-11T15:39:45.046Z,7.41
2023-02-11T15:42:40.780Z,7.44
2023-02-11T15:45:36.207Z,7.44
2023-02-11T15:48:26.660Z,7.44
2023-02-11T15:51:28.677Z,7.41
2023-02-11T15:54:24.063Z,7.38
2023-02-11T15:57:10.339Z,7.38
2023-02-11T16:00:04.253Z,7.38
2023-02-11T16:02:57.470Z,7.39
2023-02-11T16:05:42.670Z,7.39
2023-02-11T16:08:29.993Z,7.37
2023-02-11T16:11:26.178Z,7.39
2023-02-11T16:14:29.838Z,7.32
2023-02-11T16:17:17.980Z,7.62
2023-02-11T16:20:03.908Z,7.54
2023-02-11T16:22:49.121Z,7.53
2023-02-11T16:25:37.690Z,7.48
2023-02-11T16:28:23.307Z,7.43
2023-02-11T16:31:09.610Z,7.34
2023-02-11T16:33:54.580Z,7.24
2023-02-11T16:36:40.120Z,7.27
2023-02-11T16:39:25.414Z,7.29
2023-02-11T16:42:13.878Z,7.34
2023-02-11T16:45:00.195Z,7.36
2023-02-11T16:47:46.104Z,7.37
